createdAt,value
2017-06-29T00:10:08.199Z,16
2017-06-29T00:20:22.132Z,16
2017-06-29T00:30:35.937Z,16
2017-06-29T00:40:49.770Z,16
2017-06-29T00:51:04.296Z,15.7
2017-06-29T01:01:18.873Z,15.6
2017-06-29T01:11:34.127Z,15.7
2017-06-29T01:21:49.772Z,15.6
2017-06-29T01:32:03.823Z,15.4
2017-06-29T01:42:18.651Z,14.4
2017-06-29T01:52:33.187Z,15.1
2017-06-29T02:02:48.391Z,15
2017-06-29T02:13:02.842Z,15.1
2017-06-29T02:23:16.931Z,15.1
2017-06-29T02:33:30.846Z,15.3
2017-06-29T02:43:46.148Z,14.9
2017-06-29T02:54:00.297Z,14.8
2017-06-29T03:04:15.581Z,14.8
2017-06-29T03:14:30.395Z,14.3
2017-06-29T03:24:45.726Z,14.1
2017-06-29T03:35:00.312Z,14.4
2017-06-29T03:45:14.499Z,14.7
2017-06-29T03:55:28.385Z,15
2017-06-29T04:05:42.881Z,15.2
2017-06-29T04:15:57.359Z,15.2
2017-06-29T04:26:12.755Z,15.5
2017-06-29T04:36:28.292Z,15.6
2017-06-29T04:46:42.730Z,15.7
2017-06-29T04:56:57.303Z,15.8
2017-06-29T05:07:11.302Z,16
2017-06-29T05:17:26.440Z,16
2017-06-29T05:27:41.190Z,16
2017-06-29T05:37:55.229Z,16.3
2017-06-29T05:48:10.454Z,16.6
2017-06-29T05:58:25.381Z,16.7
2017-06-29T06:08:40.528Z,17
2017-06-29T06:18:55.361Z,17.8
2017-06-29T06:29:11.043Z,18.7
2017-06-29T06:39:25.591Z,18.4
2017-06-29T06:49:39.456Z,18.2
2017-06-29T06:59:55.251Z,18.8
2017-06-29T07:10:10.950Z,18.6
2017-06-29T07:20:25.288Z,18.7
2017-06-29T07:30:39.400Z,19.2
2017-06-29T07:40:53.610Z,19.5
2017-06-29T07:51:09.342Z,19.1
2017-06-29T08:01:23.340Z,19.3
2017-06-29T08:11:37.640Z,19
2017-06-29T08:21:51.500Z,18.7
2017-06-29T08:32:07.361Z,18.9
2017-06-29T08:42:21.171Z,19.3
2017-06-29T08:52:36.516Z,19.8
2017-06-29T09:02:51.397Z,19.1
2017-06-29T09:13:06.591Z,18.9
2017-06-29T09:23:22.380Z,19.4
2017-06-29T09:33:37.837Z,19.6
2017-06-29T09:43:53.165Z,19.7
2017-06-29T09:54:08.166Z,19.7
2017-06-29T10:04:23.593Z,19.4
2017-06-29T10:14:38.884Z,19.4
2017-06-29T10:24:54.463Z,19.4
2017-06-29T10:35:10.209Z,19.8
2017-06-29T10:45:24.535Z,20
2017-06-29T10:55:40.082Z,20.2
2017-06-29T11:05:55.204Z,19.5
2017-06-29T11:16:09.578Z,19.8
2017-06-29T11:26:24.759Z,20.2
2017-06-29T11:36:40.511Z,20.2
2017-06-29T11:46:55.762Z,19.9
2017-06-29T11:57:09.891Z,19.2
2017-06-29T12:07:24.988Z,19.2
2017-06-29T12:17:39.434Z,19
2017-06-29T12:27:54.048Z,18.9
2017-06-29T12:38:08.286Z,19.2
2017-06-29T12:48:22.313Z,19.2
2017-06-29T12:58:37.001Z,19.1
2017-06-29T13:45:26.363Z,19.6
2017-06-29T13:49:52.926Z,19.8
2017-06-29T14:00:08.394Z,19.4
2017-06-29T14:10:22.616Z,19.9
2017-06-29T14:20:36.498Z,20
2017-06-29T14:30:52.130Z,20
2017-06-29T14:41:07.304Z,19.9
2017-06-29T14:51:21.629Z,20.3
2017-06-29T15:01:36.952Z,20.6
2017-06-29T15:11:51.873Z,20.6
2017-06-29T15:22:06.076Z,20.4
2017-06-29T15:32:21.459Z,20.6
2017-06-29T15:42:36.258Z,20.4
2017-06-29T15:52:51.821Z,20.4
2017-06-29T16:03:06.193Z,20.5
2017-06-29T16:13:21.900Z,20.7
2017-06-29T16:23:36.637Z,20.8
2017-06-29T16:33:52.163Z,20.8
2017-06-29T16:44:07.245Z,20.8
2017-06-29T16:54:22.269Z,20.7
2017-06-29T17:04:37.695Z,20.8
2017-06-29T17:14:51.778Z,20.5
2017-06-29T17:25:06.777Z,20.5
2017-06-29T17:35:21.159Z,20.4
2017-06-29T17:45:35.042Z,20.2
2017-06-29T17:55:50.691Z,19.9
2017-06-29T18:06:05.384Z,19.6
2017-06-29T18:16:20.253Z,19.4
2017-06-29T18:26:34.974Z,19.2
2017-06-29T18:36:49.945Z,19.1
2017-06-29T18:47:05.287Z,18.9
2017-06-29T18:57:19.356Z,18.7
2017-06-29T19:07:34.158Z,18.2
2017-06-29T19:17:49.439Z,18.1
2017-06-29T19:28:04.410Z,17.8
2017-06-29T19:38:18.568Z,17.5
2017-06-29T19:48:33.394Z,17.2
2017-06-29T19:58:47.859Z,17.2
2017-06-29T20:09:01.948Z,16.9
2017-06-29T20:19:16.784Z,17
2017-06-29T20:29:32.115Z,16.9
2017-06-29T20:39:46.148Z,16.5
2017-06-29T20:49:59.999Z,16.2
2017-06-29T21:00:15.709Z,16.5
2017-06-29T21:10:30.640Z,16.5
2017-06-29T21:20:44.987Z,16.4
2017-06-29T21:31:00.175Z,16.3
2017-06-29T21:41:14.518Z,16.1
2017-06-29T21:51:28.960Z,16.2
2017-06-29T22:01:44.568Z,16.2
2017-06-29T22:11:58.890Z,16.1
2017-06-29T22:22:14.589Z,16.4
2017-06-29T22:32:28.595Z,16.3
2017-06-29T22:42:42.741Z,16
2017-06-29T22:52:56.654Z,16
2017-06-29T23:03:10.766Z,15.9
2017-06-29T23:13:24.563Z,16
2017-06-29T23:23:40.317Z,16
2017-06-29T23:33:55.112Z,15.9
2017-06-29T23:44:09.720Z,16
2017-06-29T23:54:25.122Z,15.8
